Time;durP1;ratioP1;P1;durP2;ratioP2;P2;SDS_P1;SDS_P2;PMS_P1;PMS_P2;Temp;Humidity;BMP_temperature;BMP_pressure;BME280_temperature;BME280_humidity;BME280_pressure;Samples;Min_cycle;Max_cycle;Signal;HPM_P1;HPM_P2
2021/10/16 00:02:12;;;;;;;22.70;12.77;;;;;;;4.53;100.00;98147.53;5010166;28;20475;-76
2021/10/16 00:04:38;;;;;;;21.10;13.52;;;;;;;4.52;100.00;98145.91;5011469;28;20231;-76
2021/10/16 00:07:03;;;;;;;25.63;13.73;;;;;;;4.48;100.00;98149.38;5011727;28;20030;-77
2021/10/16 00:09:28;;;;;;;25.30;14.02;;;;;;;4.49;100.00;98141.00;5011167;28;20115;-77
2021/10/16 00:11:54;;;;;;;24.75;13.38;;;;;;;4.50;100.00;98136.41;5011584;28;20026;-77
2021/10/16 00:14:19;;;;;;;23.70;13.23;;;;;;;4.53;100.00;98144.84;5011291;28;20033;-77
2021/10/16 00:16:45;;;;;;;20.58;12.27;;;;;;;4.46;100.00;98146.09;5010931;28;20501;-76
2021/10/16 00:19:10;;;;;;;19.00;12.55;;;;;;;4.39;100.00;98135.44;5011106;28;20026;-77
2021/10/16 00:21:37;;;;;;;21.52;12.73;;;;;;;4.33;100.00;98137.25;5010855;28;20022;-76
2021/10/16 00:24:03;;;;;;;21.27;13.00;;;;;;;4.19;100.00;98146.84;5011202;28;20113;-77
2021/10/16 00:26:28;;;;;;;20.55;13.75;;;;;;;4.15;100.00;98139.44;5010956;28;20123;-77
2021/10/16 00:28:54;;;;;;;24.95;13.00;;;;;;;4.19;100.00;98146.00;5011290;28;20025;-77
2021/10/16 00:31:19;;;;;;;21.70;12.25;;;;;;;4.19;100.00;98143.31;5011267;28;20458;-76
2021/10/16 00:33:45;;;;;;;30.10;12.63;;;;;;;4.17;100.00;98140.84;5009988;28;20514;-76
2021/10/16 00:36:10;;;;;;;21.17;13.13;;;;;;;4.20;100.00;98142.22;5010436;28;20045;-76
2021/10/16 00:38:36;;;;;;;19.27;11.93;;;;;;;4.22;100.00;98140.91;5031079;28;20088;-78
2021/10/16 00:41:01;;;;;;;21.48;12.30;;;;;;;4.27;100.00;98140.97;5018782;28;20489;-78
2021/10/16 00:43:27;;;;;;;19.42;12.90;;;;;;;4.29;100.00;98140.75;5028483;28;20783;-76
2021/10/16 00:45:53;;;;;;;19.67;11.73;;;;;;;4.30;100.00;98143.19;5027553;28;20478;-74
2021/10/16 00:48:18;;;;;;;20.65;12.77;;;;;;;4.27;100.00;98143.69;5029866;28;20044;-76
2021/10/16 00:50:44;;;;;;;21.40;12.43;;;;;;;4.32;100.00;98141.03;5011601;28;20026;-77
2021/10/16 00:53:12;;;;;;;21.58;13.50;;;;;;;4.31;100.00;98139.41;5012366;28;20029;-76
2021/10/16 00:55:39;;;;;;;22.23;13.02;;;;;;;4.31;100.00;98146.72;5013122;28;20041;-77
2021/10/16 00:58:04;;;;;;;27.77;13.90;;;;;;;4.29;100.00;98141.53;5013324;28;20026;-76
2021/10/16 01:00:29;;;;;;;26.30;13.95;;;;;;;4.21;100.00;98139.28;5010473;28;20026;-76
2021/10/16 01:02:55;;;;;;;24.52;14.27;;;;;;;4.16;100.00;98141.91;5010210;28;20387;-76
2021/10/16 01:05:21;;;;;;;20.75;13.32;;;;;;;4.14;100.00;98135.91;5023700;28;20026;-76
2021/10/16 01:07:47;;;;;;;24.77;13.88;;;;;;;4.13;100.00;98134.31;4990624;28;20498;-76
2021/10/16 01:10:13;;;;;;;21.27;13.50;;;;;;;3.99;100.00;98134.88;4990945;28;20093;-76
2021/10/16 01:12:40;;;;;;;23.60;14.77;;;;;;;4.02;100.00;98137.09;4991199;28;20026;-76
2021/10/16 01:15:09;;;;;;;24.98;13.60;;;;;;;4.02;100.00;98140.63;5006340;28;20061;-77
2021/10/16 01:17:37;;;;;;;24.08;13.43;;;;;;;4.07;100.00;98129.84;4991373;28;20118;-78
2021/10/16 01:20:11;;;;;;;27.58;14.45;;;;;;;3.98;100.00;98134.06;5005417;28;20045;-76
2021/10/16 01:22:39;;;;;;;23.73;15.05;;;;;;;4.06;100.00;98133.66;4990528;28;20041;-75
2021/10/16 01:25:09;;;;;;;23.40;13.60;;;;;;;4.01;100.00;98130.84;5001634;28;20124;-77
2021/10/16 01:27:37;;;;;;;25.08;14.63;;;;;;;4.00;100.00;98131.94;5011914;28;20037;-77
2021/10/16 01:30:04;;;;;;;25.27;15.32;;;;;;;3.97;100.00;98137.03;5007454;28;20025;-77
2021/10/16 01:32:30;;;;;;;27.02;15.90;;;;;;;3.95;100.00;98131.84;5008595;28;20034;-76
2021/10/16 01:34:56;;;;;;;24.67;15.38;;;;;;;4.02;100.00;98134.38;4993259;28;20029;-77
2021/10/16 01:37:21;;;;;;;22.95;14.30;;;;;;;3.98;100.00;98139.47;5008925;28;20042;-77
2021/10/16 01:39:47;;;;;;;25.77;15.80;;;;;;;3.95;100.00;98134.56;4993789;28;20046;-77
2021/10/16 01:42:13;;;;;;;24.52;14.88;;;;;;;3.96;100.00;98138.09;4998499;28;20022;-77
2021/10/16 01:44:43;;;;;;;24.80;16.17;;;;;;;3.88;100.00;98141.22;5013190;28;20068;-76
2021/10/16 01:47:08;;;;;;;23.30;14.13;;;;;;;3.88;100.00;98136.63;5012982;28;20041;-76
2021/10/16 01:49:35;;;;;;;24.63;14.82;;;;;;;3.95;100.00;98139.97;5013002;28;20030;-77
2021/10/16 01:52:00;;;;;;;28.50;15.25;;;;;;;3.93;100.00;98136.69;5013298;28;20029;-76
2021/10/16 01:54:26;;;;;;;24.52;15.38;;;;;;;3.97;100.00;98137.84;5012897;28;20383;-75
2021/10/16 01:56:51;;;;;;;22.83;14.70;;;;;;;3.94;100.00;98138.34;5012660;28;20132;-75
2021/10/16 01:59:22;;;;;;;23.45;14.73;;;;;;;3.94;100.00;98134.81;5028061;28;20497;-76
2021/10/16 02:01:47;;;;;;;23.20;14.32;;;;;;;3.95;100.00;98145.38;5012467;28;20395;-75
2021/10/16 02:04:14;;;;;;;24.00;13.82;;;;;;;3.87;100.00;98143.09;5012807;28;20100;-75
2021/10/16 02:06:41;;;;;;;25.73;14.63;;;;;;;3.89;100.00;98143.66;5027928;28;20391;-75
2021/10/16 02:09:06;;;;;;;22.88;14.88;;;;;;;3.86;100.00;98146.88;5011430;28;20117;-76
2021/10/16 02:11:32;;;;;;;20.83;13.85;;;;;;;3.81;100.00;98141.41;5028328;28;20141;-76
2021/10/16 02:13:59;;;;;;;24.48;14.02;;;;;;;3.78;100.00;98141.88;5011222;28;20018;-75
2021/10/16 02:16:25;;;;;;;31.45;14.68;;;;;;;3.67;100.00;98148.19;5012610;28;20406;-76
2021/10/16 02:18:51;;;;;;;24.02;14.00;;;;;;;3.72;100.00;98151.81;5012974;28;20031;-75
2021/10/16 02:21:16;;;;;;;20.25;12.95;;;;;;;3.72;100.00;98140.19;5011448;28;20033;-75
2021/10/16 02:23:42;;;;;;;24.85;14.77;;;;;;;3.70;100.00;98147.69;5011862;28;20026;-75
2021/10/16 02:26:07;;;;;;;18.80;12.43;;;;;;;3.67;100.00;98153.59;5011500;28;20088;-76
2021/10/16 02:28:32;;;;;;;25.88;14.63;;;;;;;3.73;100.00;98152.63;5012756;28;20041;-76
2021/10/16 02:30:58;;;;;;;21.77;13.35;;;;;;;3.70;100.00;98158.50;5012414;28;20129;-75
2021/10/16 02:33:23;;;;;;;28.83;15.02;;;;;;;3.60;100.00;98152.97;5012580;28;20053;-76
2021/10/16 02:35:49;;;;;;;25.83;13.88;;;;;;;3.63;100.00;98158.69;5012499;28;20034;-76
2021/10/16 02:38:14;;;;;;;27.25;15.30;;;;;;;3.65;100.00;98153.03;5011310;28;20036;-76
2021/10/16 02:40:40;;;;;;;23.20;14.75;;;;;;;3.50;100.00;98144.69;5012395;28;20030;-76
2021/10/16 02:43:05;;;;;;;27.02;15.40;;;;;;;3.51;100.00;98141.72;5012532;28;20010;-76
2021/10/16 02:45:31;;;;;;;27.95;15.27;;;;;;;3.53;100.00;98152.31;5012413;28;20631;-76
2021/10/16 02:47:57;;;;;;;29.05;15.20;;;;;;;3.54;100.00;98148.53;5027911;28;20688;-75
2021/10/16 02:50:22;;;;;;;23.98;14.13;;;;;;;3.57;100.00;98154.25;5012652;28;20390;-76
2021/10/16 02:52:48;;;;;;;26.13;14.40;;;;;;;3.61;100.00;98160.00;5014757;28;20041;-76
2021/10/16 02:55:13;;;;;;;21.48;13.02;;;;;;;3.62;100.00;98158.94;5035000;28;20038;-76
2021/10/16 02:57:39;;;;;;;28.77;15.48;;;;;;;3.56;100.00;98168.03;5032227;28;20085;-75
2021/10/16 03:00:05;;;;;;;28.50;13.82;;;;;;;3.53;100.00;98166.66;5021184;28;20034;-77
2021/10/16 03:02:31;;;;;;;28.05;14.80;;;;;;;3.52;100.00;98166.88;5010398;28;20057;-77
2021/10/16 03:04:56;;;;;;;29.60;16.35;;;;;;;3.53;100.00;98171.22;5012185;28;20069;-76
2021/10/16 03:07:22;;;;;;;24.42;15.10;;;;;;;3.47;100.00;98175.75;5009033;28;20030;-76
2021/10/16 03:09:47;;;;;;;25.08;14.75;;;;;;;3.39;100.00;98164.47;5016304;28;20483;-77
2021/10/16 03:12:12;;;;;;;21.58;13.90;;;;;;;3.35;100.00;98171.47;5012228;28;20045;-77
2021/10/16 03:14:38;;;;;;;29.35;14.40;;;;;;;3.37;100.00;98180.97;4995730;28;20026;-77
2021/10/16 03:17:03;;;;;;;29.38;14.43;;;;;;;3.34;100.00;98175.22;5007339;28;20065;-77
2021/10/16 03:19:29;;;;;;;24.00;14.48;;;;;;;3.29;100.00;98189.44;4991865;28;20089;-77
2021/10/16 03:21:54;;;;;;;28.88;13.98;;;;;;;3.33;100.00;98189.78;4992218;28;20034;-77
2021/10/16 03:24:19;;;;;;;26.58;14.55;;;;;;;3.39;100.00;98183.41;4993708;28;20441;-76
2021/10/16 03:26:45;;;;;;;24.27;13.55;;;;;;;3.31;100.00;98192.75;5007916;28;20030;-76
2021/10/16 03:29:11;;;;;;;22.48;12.88;;;;;;;3.37;100.00;98185.53;5012408;28;20032;-75
2021/10/16 03:31:37;;;;;;;18.70;12.65;;;;;;;3.28;100.00;98181.59;5011890;28;20430;-75
2021/10/16 03:34:02;;;;;;;21.77;12.68;;;;;;;3.27;100.00;98178.06;5011209;28;20591;-75
2021/10/16 03:36:28;;;;;;;20.23;12.38;;;;;;;3.26;100.00;98173.72;5011890;28;20033;-75
2021/10/16 03:38:54;;;;;;;21.52;10.70;;;;;;;3.27;100.00;98180.78;5011318;28;20030;-75
2021/10/16 03:41:20;;;;;;;20.52;11.95;;;;;;;3.23;100.00;98188.53;5010913;28;20112;-76
2021/10/16 03:43:45;;;;;;;17.42;11.43;;;;;;;3.29;100.00;98194.06;5010078;28;20117;-76
2021/10/16 03:46:11;;;;;;;17.98;11.55;;;;;;;3.34;100.00;98178.75;5010927;28;20626;-77
2021/10/16 03:48:36;;;;;;;18.30;11.30;;;;;;;3.33;100.00;98179.78;5010811;28;20099;-77
2021/10/16 03:51:01;;;;;;;20.42;12.60;;;;;;;3.23;100.00;98191.25;5009350;28;20469;-77
2021/10/16 03:53:27;;;;;;;16.17;11.15;;;;;;;3.26;100.00;98199.94;5010955;28;20072;-77
2021/10/16 03:55:55;;;;;;;17.77;10.52;;;;;;;3.26;100.00;98199.94;5010873;28;20064;-77
2021/10/16 03:58:21;;;;;;;15.95;10.30;;;;;;;3.22;100.00;98208.53;5010518;28;20109;-76
2021/10/16 04:00:48;;;;;;;22.40;11.95;;;;;;;3.19;100.00;98209.03;5010806;28;20443;-76
2021/10/16 04:03:14;;;;;;;16.80;10.90;;;;;;;3.22;100.00;98213.13;5010793;28;20379;-76
2021/10/16 04:05:40;;;;;;;23.70;15.55;;;;;;;3.20;100.00;98205.25;5006252;28;20030;-77
2021/10/16 04:08:08;;;;;;;18.85;12.15;;;;;;;3.11;100.00;98200.47;4991294;28;20026;-76
2021/10/16 04:10:33;;;;;;;23.75;13.23;;;;;;;3.18;100.00;98212.78;4991198;28;20442;-76
2021/10/16 04:12:58;;;;;;;17.33;11.18;;;;;;;3.15;100.00;98209.75;5006499;28;20030;-76
2021/10/16 04:15:24;;;;;;;15.02;10.75;;;;;;;3.15;100.00;98201.63;4991378;28;20038;-76
2021/10/16 04:17:50;;;;;;;16.50;10.52;;;;;;;3.07;100.00;98207.44;5006656;28;20061;-74
2021/10/16 04:20:16;;;;;;;18.05;10.80;;;;;;;3.07;100.00;98212.84;5002295;28;20501;-75
2021/10/16 04:22:41;;;;;;;19.02;12.00;;;;;;;3.01;100.00;98209.19;4991701;28;20010;-75
2021/10/16 04:25:07;;;;;;;19.20;11.43;;;;;;;3.08;100.00;98209.88;5006973;28;20379;-75
2021/10/16 04:27:32;;;;;;;23.73;13.70;;;;;;;3.13;100.00;98204.56;4991027;28;20037;-76
2021/10/16 04:29:58;;;;;;;18.27;11.30;;;;;;;3.22;100.00;98211.25;4989502;28;20024;-76
2021/10/16 04:32:23;;;;;;;19.00;11.98;;;;;;;3.23;100.00;98210.16;4990918;28;20037;-75
2021/10/16 04:34:49;;;;;;;17.70;11.95;;;;;;;3.29;100.00;98207.56;4990911;28;20063;-76
2021/10/16 04:37:17;;;;;;;18.20;11.27;;;;;;;3.31;100.00;98206.25;4991552;28;20058;-76
2021/10/16 04:39:43;;;;;;;18.25;10.88;;;;;;;3.36;100.00;98214.44;4990830;28;20030;-75
2021/10/16 04:42:12;;;;;;;17.80;11.80;;;;;;;3.45;100.00;98217.56;4991022;28;20100;-75
2021/10/16 04:44:39;;;;;;;20.83;11.68;;;;;;;3.43;100.00;98225.94;4990931;28;20038;-76
2021/10/16 04:47:05;;;;;;;17.65;11.25;;;;;;;3.44;100.00;98219.47;4992536;28;20131;-74
2021/10/16 04:49:31;;;;;;;23.63;12.05;;;;;;;3.46;100.00;98221.94;4990981;28;20081;-75
2021/10/16 04:51:56;;;;;;;20.67;12.38;;;;;;;3.46;100.00;98228.16;4990907;28;20026;-76
2021/10/16 04:54:23;;;;;;;20.63;12.80;;;;;;;3.51;100.00;98225.53;4989510;28;20054;-75
2021/10/16 04:56:48;;;;;;;24.95;12.27;;;;;;;3.54;100.00;98224.25;4990995;28;20030;-75
2021/10/16 04:59:14;;;;;;;21.50;12.90;;;;;;;3.60;100.00;98223.28;4991021;28;20027;-76
2021/10/16 05:01:39;;;;;;;26.58;14.40;;;;;;;3.68;100.00;98218.28;4993593;28;20475;-76
2021/10/16 05:04:04;;;;;;;29.00;15.18;;;;;;;3.67;100.00;98218.50;4994615;28;20057;-74
2021/10/16 05:06:32;;;;;;;31.52;17.15;;;;;;;3.63;100.00;98220.09;4994147;28;20037;-76
2021/10/16 05:08:58;;;;;;;30.50;15.75;;;;;;;3.51;100.00;98225.53;4997403;28;20038;-77
2021/10/16 05:11:23;;;;;;;39.78;16.55;;;;;;;3.44;100.00;98218.66;5002411;28;20551;-77
2021/10/16 05:13:48;;;;;;;33.83;16.13;;;;;;;3.48;100.00;98217.91;5002843;28;20054;-76
2021/10/16 05:16:14;;;;;;;33.03;15.48;;;;;;;3.50;100.00;98223.09;4998586;28;20399;-76
2021/10/16 05:18:39;;;;;;;33.20;15.63;;;;;;;3.45;100.00;98223.81;4994549;28;20034;-75
2021/10/16 05:21:05;;;;;;;62.80;18.95;;;;;;;3.37;100.00;98228.78;4992970;28;20026;-75
2021/10/16 05:23:30;;;;;;;39.00;18.65;;;;;;;3.42;100.00;98226.16;4993164;28;20022;-76
2021/10/16 05:25:56;;;;;;;45.53;18.10;;;;;;;3.47;100.00;98227.09;4994229;28;20023;-76
2021/10/16 05:28:22;;;;;;;30.77;16.80;;;;;;;3.50;100.00;98220.38;4994188;28;20096;-76
2021/10/16 05:30:48;;;;;;;70.57;16.92;;;;;;;3.50;100.00;98231.19;4992866;28;20030;-76
2021/10/16 05:33:13;;;;;;;38.42;16.38;;;;;;;3.53;100.00;98236.94;4992660;28;20475;-76
2021/10/16 05:35:43;;;;;;;30.67;16.17;;;;;;;3.57;100.00;98235.38;4994152;28;20030;-76
2021/10/16 05:38:09;;;;;;;31.75;15.57;;;;;;;3.66;100.00;98238.53;4992620;28;20030;-76
2021/10/16 05:40:34;;;;;;;37.13;16.02;;;;;;;3.67;100.00;98246.38;4993789;28;20042;-76
2021/10/16 05:43:00;;;;;;;27.30;14.88;;;;;;;3.81;100.00;98255.00;4994370;28;20113;-76
2021/10/16 05:45:25;;;;;;;25.63;14.50;;;;;;;3.81;100.00;98262.31;4994233;28;20031;-76
2021/10/16 05:47:50;;;;;;;23.40;14.98;;;;;;;3.83;100.00;98265.56;5000085;28;20026;-76
2021/10/16 05:50:16;;;;;;;22.15;12.93;;;;;;;3.82;100.00;98270.19;4997645;28;20038;-76
2021/10/16 05:52:41;;;;;;;19.98;12.27;;;;;;;3.83;100.00;98260.16;5010020;28;20075;-76
2021/10/16 05:55:07;;;;;;;22.38;13.20;;;;;;;3.93;100.00;98272.00;5012052;28;20104;-76
2021/10/16 05:57:33;;;;;;;21.75;14.10;;;;;;;3.98;100.00;98269.34;5013759;28;20038;-76
2021/10/16 05:59:59;;;;;;;21.35;12.70;;;;;;;3.98;100.00;98277.47;5001535;28;20041;-77
2021/10/16 06:02:24;;;;;;;21.38;12.90;;;;;;;4.08;100.00;98280.34;5008469;28;20018;-75
2021/10/16 06:04:49;;;;;;;19.75;13.13;;;;;;;4.16;100.00;98287.25;5007984;28;20499;-76
2021/10/16 06:07:15;;;;;;;25.30;14.35;;;;;;;4.17;100.00;98292.41;4992094;28;20043;-76
2021/10/16 06:09:40;;;;;;;23.85;14.05;;;;;;;4.20;100.00;98278.38;4992887;28;20500;-76
2021/10/16 06:12:06;;;;;;;25.58;14.35;;;;;;;4.22;100.00;98284.38;4993009;28;20050;-76
2021/10/16 06:14:31;;;;;;;24.33;14.90;;;;;;;4.26;100.00;98299.06;4993741;28;20030;-76
2021/10/16 06:16:57;;;;;;;23.60;15.00;;;;;;;4.27;100.00;98289.88;4992845;28;20086;-77
2021/10/16 06:19:22;;;;;;;26.73;15.20;;;;;;;4.25;100.00;98294.72;5008221;28;20034;-76
2021/10/16 06:21:48;;;;;;;23.58;15.00;;;;;;;4.20;100.00;98305.44;4993040;28;20479;-76
2021/10/16 06:24:13;;;;;;;25.80;14.55;;;;;;;4.26;100.00;98309.88;4993021;28;20037;-78
2021/10/16 06:26:40;;;;;;;24.15;15.65;;;;;;;4.33;100.00;98309.72;4992897;28;20488;-76
2021/10/16 06:29:05;;;;;;;27.10;15.55;;;;;;;4.46;100.00;98313.97;4993018;28;20378;-76
2021/10/16 06:31:31;;;;;;;31.50;14.38;;;;;;;4.53;100.00;98310.06;4992807;28;20505;-76
2021/10/16 06:33:56;;;;;;;25.15;15.25;;;;;;;4.60;100.00;98312.59;4992974;28;20037;-77
2021/10/16 06:36:22;;;;;;;27.65;14.93;;;;;;;4.63;100.00;98314.81;4992653;28;20447;-75
2021/10/16 06:38:47;;;;;;;31.27;16.50;;;;;;;4.48;100.00;98317.28;4992808;28;20030;-76
2021/10/16 06:41:12;;;;;;;28.05;15.50;;;;;;;4.52;100.00;98321.13;5007731;28;20029;-76
2021/10/16 06:43:38;;;;;;;28.48;15.65;;;;;;;4.56;100.00;98327.69;4992918;28;20041;-76
2021/10/16 06:46:03;;;;;;;29.13;16.70;;;;;;;4.51;100.00;98314.88;4992398;28;20026;-76
2021/10/16 06:48:29;;;;;;;41.08;18.45;;;;;;;4.59;100.00;98319.06;4992503;28;20034;-76
2021/10/16 06:50:54;;;;;;;30.48;16.10;;;;;;;4.70;100.00;98307.28;4992527;28;20479;-76
2021/10/16 06:53:19;;;;;;;28.30;15.02;;;;;;;4.81;100.00;98311.81;4992169;28;20392;-76
2021/10/16 06:55:45;;;;;;;24.70;14.80;;;;;;;4.94;100.00;98318.75;4992122;28;20125;-76
2021/10/16 06:58:10;;;;;;;28.73;15.10;;;;;;;5.02;100.00;98316.44;4992242;28;20121;-75
2021/10/16 07:00:37;;;;;;;29.02;15.88;;;;;;;5.20;100.00;98321.53;5004115;28;20030;-75
2021/10/16 07:03:05;;;;;;;31.40;15.30;;;;;;;5.52;100.00;98318.13;4994552;28;20030;-75
2021/10/16 07:05:31;;;;;;;28.27;14.95;;;;;;;6.02;100.00;98324.13;4992079;28;20061;-75
2021/10/16 07:07:56;;;;;;;27.10;15.00;;;;;;;6.59;100.00;98328.97;5000707;28;20065;-75
2021/10/16 07:10:22;;;;;;;30.25;16.50;;;;;;;7.22;99.40;98319.84;5009291;28;20062;-76
2021/10/16 07:12:47;;;;;;;21.05;12.65;;;;;;;8.19;94.22;98317.16;5010855;28;20026;-76
2021/10/16 07:15:13;;;;;;;23.00;13.85;;;;;;;10.06;81.84;98327.63;5012109;28;20623;-75
2021/10/16 07:17:38;;;;;;;22.08;12.82;;;;;;;10.66;76.85;98343.63;5010549;28;20452;-77
2021/10/16 07:20:05;;;;;;;21.38;13.02;;;;;;;10.92;75.55;98337.94;5012644;28;20076;-77
2021/10/16 07:22:31;;;;;;;22.42;13.88;;;;;;;10.63;75.40;98344.22;5012370;28;20025;-77
2021/10/16 07:24:56;;;;;;;21.20;11.75;;;;;;;10.51;75.78;98343.75;5015833;28;20030;-77
2021/10/16 07:27:21;;;;;;;23.50;11.82;;;;;;;10.76;74.38;98337.25;5008821;28;20037;-78
2021/10/16 07:29:47;;;;;;;25.35;12.90;;;;;;;12.29;69.86;98344.25;5025613;28;20576;-78
2021/10/16 07:32:14;;;;;;;19.50;11.73;;;;;;;13.30;64.28;98333.53;4999635;28;20390;-77
2021/10/16 07:34:39;;;;;;;17.67;11.80;;;;;;;14.08;60.38;98343.47;4992710;28;20026;-71
2021/10/16 07:37:05;;;;;;;22.83;11.85;;;;;;;14.25;59.71;98343.66;4999644;28;20041;-72
2021/10/16 07:39:30;;;;;;;18.88;11.27;;;;;;;13.60;61.91;98332.94;5007137;28;20463;-72
2021/10/16 07:41:56;;;;;;;19.48;11.88;;;;;;;13.97;61.18;98342.09;5010755;28;20022;-71
2021/10/16 07:44:21;;;;;;;18.10;11.52;;;;;;;14.27;60.16;98341.41;5009213;28;20037;-71
2021/10/16 07:46:47;;;;;;;20.88;10.70;;;;;;;14.96;57.44;98354.66;4991222;28;20036;-71
2021/10/16 07:49:12;;;;;;;18.48;10.55;;;;;;;14.48;58.24;98348.91;5006714;28;20017;-71
2021/10/16 07:51:37;;;;;;;17.67;10.60;;;;;;;15.15;56.53;98345.34;5035874;28;20033;-80
2021/10/16 07:54:05;;;;;;;22.70;11.63;;;;;;;14.45;59.08;98359.72;5033385;28;20038;-79
2021/10/16 07:56:30;;;;;;;18.58;10.98;;;;;;;15.22;57.10;98354.00;5022414;28;20030;-81
2021/10/16 07:58:56;;;;;;;20.23;11.35;;;;;;;15.33;56.17;98347.06;5026725;28;20052;-81
2021/10/16 08:01:21;;;;;;;18.52;11.77;;;;;;;15.56;55.04;98348.69;5033964;28;20021;-82
2021/10/16 08:03:47;;;;;;;15.73;10.50;;;;;;;15.74;54.88;98347.63;5015173;28;20129;-79
2021/10/16 08:06:12;;;;;;;15.90;9.90;;;;;;;15.35;55.19;98350.31;5010771;28;20097;-80
2021/10/16 08:08:37;;;;;;;21.08;11.38;;;;;;;13.80;58.89;98343.53;5018682;28;20037;-79
2021/10/16 08:11:03;;;;;;;15.48;11.27;;;;;;;12.22;65.11;98346.53;5029278;28;20022;-80
2021/10/16 08:13:30;;;;;;;16.45;10.05;;;;;;;12.00;66.71;98354.53;5034579;28;20042;-81
2021/10/16 08:15:56;;;;;;;16.38;10.25;;;;;;;12.00;66.44;98349.03;5030566;28;20032;-81
2021/10/16 08:18:21;;;;;;;17.30;10.43;;;;;;;12.95;64.73;98347.88;5050201;28;20061;-79
2021/10/16 08:20:47;;;;;;;19.88;11.10;;;;;;;12.84;63.90;98339.78;5025450;28;20419;-80
2021/10/16 08:23:12;;;;;;;19.00;10.82;;;;;;;13.14;63.26;98352.22;5024939;28;20030;-80
2021/10/16 08:25:38;;;;;;;17.15;10.75;;;;;;;12.80;64.37;98349.78;5024539;28;20034;-80
2021/10/16 08:28:12;;;;;;;19.20;11.30;;;;;;;12.48;65.54;98355.22;5015083;28;20562;-79
2021/10/16 08:30:44;;;;;;;21.48;10.98;;;;;;;12.54;66.87;98359.50;5017994;28;20080;-80
2021/10/16 08:33:09;;;;;;;20.42;11.60;;;;;;;13.02;65.72;98348.31;5018508;28;20084;-80
2021/10/16 08:35:35;;;;;;;15.23;10.50;;;;;;;13.76;61.82;98334.25;5029498;28;20034;-80
2021/10/16 08:38:00;;;;;;;17.25;10.65;;;;;;;13.71;61.60;98345.38;5028300;28;20057;-80
2021/10/16 08:40:26;;;;;;;17.80;10.57;;;;;;;13.72;61.58;98340.69;5030851;28;20009;-81
2021/10/16 08:42:52;;;;;;;18.70;11.05;;;;;;;13.17;63.31;98335.13;5032417;28;20034;-81
2021/10/16 08:45:18;;;;;;;14.05;10.10;;;;;;;13.07;64.19;98350.94;5028900;28;20029;-80
2021/10/16 08:47:45;;;;;;;18.58;10.68;;;;;;;12.97;64.80;98335.47;5024099;28;20432;-80
2021/10/16 08:50:11;;;;;;;16.42;10.30;;;;;;;13.25;64.17;98348.16;5027690;28;20388;-80
2021/10/16 08:52:38;;;;;;;15.63;10.48;;;;;;;13.11;64.15;98347.34;5025219;28;20014;-78
2021/10/16 08:55:05;;;;;;;15.50;10.57;;;;;;;13.22;63.61;98342.47;5034100;28;20037;-81
2021/10/16 08:57:35;;;;;;;14.30;10.38;;;;;;;13.20;63.83;98358.44;5039390;28;20026;-80
2021/10/16 09:00:41;;;;;;;14.95;9.60;;;;;;;13.39;63.49;98351.75;5038221;28;20021;-80
2021/10/16 09:03:23;;;;;;;12.95;9.43;;;;;;;14.72;60.11;98354.13;5025588;28;20034;-81
2021/10/16 09:06:04;;;;;;;18.55;9.77;;;;;;;14.16;60.50;98351.03;5032342;28;20025;-81
2021/10/16 09:08:35;;;;;;;15.35;10.15;;;;;;;14.57;59.16;98357.25;5032929;28;20079;-80
2021/10/16 09:11:11;;;;;;;17.98;10.88;;;;;;;14.62;59.04;98354.38;5032887;28;20021;-79
2021/10/16 09:14:07;;;;;;;15.02;9.75;;;;;;;15.29;57.82;98357.09;5027365;28;20026;-80
2021/10/16 09:16:37;;;;;;;20.30;10.68;;;;;;;14.28;59.92;98354.06;4999480;28;20042;-81
2021/10/16 09:19:14;;;;;;;16.40;10.30;;;;;;;15.11;57.93;98353.44;5038914;28;20074;-80
2021/10/16 09:21:55;;;;;;;14.18;10.25;;;;;;;15.97;54.84;98326.25;5040041;28;20033;-80
2021/10/16 09:24:38;;;;;;;12.60;9.23;;;;;;;15.03;57.33;98352.25;5040485;28;20006;-80
2021/10/16 09:27:05;;;;;;;13.20;10.05;;;;;;;14.98;58.55;98354.31;5034463;28;20011;-81
2021/10/16 09:29:33;;;;;;;18.75;9.70;;;;;;;16.62;54.37;98345.53;5035666;28;20102;-82
2021/10/16 09:32:04;;;;;;;14.20;9.80;;;;;;;18.60;48.27;98349.22;5028951;28;20022;-75
2021/10/16 09:34:32;;;;;;;16.13;9.02;;;;;;;19.72;45.01;98353.66;5006660;28;20038;-76
2021/10/16 09:37:08;;;;;;;16.80;9.75;;;;;;;18.09;47.43;98339.28;5008518;28;20025;-78
2021/10/16 09:39:36;;;;;;;16.77;9.02;;;;;;;18.18;47.51;98323.41;5010927;28;20037;-75
2021/10/16 09:42:01;;;;;;;13.13;9.50;;;;;;;17.93;48.38;98345.72;5007189;28;20044;-76
2021/10/16 09:44:29;;;;;;;10.90;8.50;;;;;;;17.55;49.38;98341.00;5008671;28;20483;-79
2021/10/16 09:47:15;;;;;;;12.23;8.45;;;;;;;18.29;47.27;98347.94;5008208;28;20080;-76
2021/10/16 09:49:58;;;;;;;15.35;10.57;;;;;;;17.78;48.42;98349.84;5007454;28;20375;-77
2021/10/16 09:52:33;;;;;;;17.02;10.48;;;;;;;17.17;49.38;98348.38;5005975;28;20037;-79
2021/10/16 09:55:00;;;;;;;17.40;11.80;;;;;;;16.78;51.04;98349.44;5007783;28;20021;-76
2021/10/16 09:57:26;;;;;;;18.25;12.38;;;;;;;17.61;48.80;98345.19;5008114;28;20525;-77
2021/10/16 09:59:52;;;;;;;17.10;12.82;;;;;;;19.15;45.05;98348.88;5007112;28;20030;-79
2021/10/16 10:02:18;;;;;;;17.90;11.80;;;;;;;18.90;45.81;98341.63;5023877;28;20109;-78
2021/10/16 10:04:47;;;;;;;13.70;10.70;;;;;;;16.70;47.47;98336.41;5006482;28;20034;-78
2021/10/16 10:07:17;;;;;;;19.63;12.15;;;;;;;17.16;48.33;98337.69;5009500;28;20057;-81
2021/10/16 10:09:45;;;;;;;15.95;10.98;;;;;;;17.37;48.38;98333.06;5023613;28;20579;-78
2021/10/16 10:12:15;;;;;;;16.92;11.88;;;;;;;16.25;50.79;98335.09;5008805;28;20049;-77
2021/10/16 10:14:43;;;;;;;17.98;10.23;;;;;;;16.19;50.86;98333.59;5005684;28;20033;-78
2021/10/16 10:17:10;;;;;;;19.15;12.25;;;;;;;15.71;52.22;98336.41;5005314;28;20049;-76
2021/10/16 10:19:45;;;;;;;16.90;11.50;;;;;;;15.60;52.47;98333.09;5005903;28;21544;-75
2021/10/16 10:22:17;;;;;;;17.30;12.10;;;;;;;17.11;49.29;98320.09;5007491;28;20087;-77
2021/10/16 10:24:45;;;;;;;16.95;11.48;;;;;;;17.34;49.21;98322.66;5007137;28;20077;-77
2021/10/16 10:27:12;;;;;;;15.15;11.05;;;;;;;18.42;45.73;98327.50;5007919;28;20045;-76
2021/10/16 10:29:42;;;;;;;15.45;10.45;;;;;;;18.92;44.48;98327.44;5007690;28;20037;-77
2021/10/16 10:32:18;;;;;;;14.65;10.55;;;;;;;18.94;44.10;98330.66;5039531;28;20033;-77
2021/10/16 10:35:09;;;;;;;16.95;11.35;;;;;;;18.36;45.23;98317.75;5007838;28;20030;-76
2021/10/16 10:37:44;;;;;;;16.42;10.88;;;;;;;17.58;47.44;98317.38;5005326;28;20042;-78
2021/10/16 10:40:15;;;;;;;14.63;10.80;;;;;;;17.58;47.05;98307.13;5007761;28;20033;-78
2021/10/16 10:42:42;;;;;;;18.27;11.68;;;;;;;16.65;49.44;98313.69;5005391;28;20037;-76
2021/10/16 10:45:32;;;;;;;14.18;10.43;;;;;;;14.90;54.60;98305.50;5006829;28;20033;-76
2021/10/16 10:48:02;;;;;;;14.98;10.48;;;;;;;15.72;53.77;98294.72;4996263;28;20041;-77
2021/10/16 10:50:46;;;;;;;17.85;10.77;;;;;;;16.63;51.62;98297.44;5006756;28;20040;-76
2021/10/16 10:53:26;;;;;;;15.98;10.32;;;;;;;17.70;48.83;98302.88;5006752;28;20505;-77
2021/10/16 10:55:55;;;;;;;15.68;10.52;;;;;;;17.80;49.10;98302.47;5018841;28;20056;-84
2021/10/16 10:58:22;;;;;;;15.02;9.70;;;;;;;17.24;50.26;98292.59;5014238;28;20042;-79
2021/10/16 11:00:49;;;;;;;14.32;10.20;;;;;;;18.35;47.93;98289.25;5009524;28;20168;-82
2021/10/16 11:03:30;;;;;;;16.40;10.57;;;;;;;18.11;48.27;98291.84;5010402;28;20042;-84
2021/10/16 11:06:17;;;;;;;13.95;10.63;;;;;;;17.78;48.97;98288.16;5011403;28;20032;-83
2021/10/16 11:08:43;;;;;;;12.65;10.23;;;;;;;17.90;48.89;98288.25;5030305;28;20125;-82
2021/10/16 11:11:09;;;;;;;23.10;11.45;;;;;;;15.69;54.27;98270.53;5026313;28;20056;-83
2021/10/16 11:13:36;;;;;;;16.13;10.70;;;;;;;15.60;55.66;98272.44;5034307;28;20044;-80
2021/10/16 11:16:04;;;;;;;15.20;10.75;;;;;;;15.02;57.93;98276.25;5032755;28;20018;-81
2021/10/16 11:18:30;;;;;;;17.23;10.52;;;;;;;14.95;58.70;98267.59;5027300;28;20030;-79